sensor_id;sensor_type;location;lat;lon;timestamp;P1;durP1;ratioP1;P2;durP2;ratioP2
20619;SDS011;10469;42.720;23.252;2023-07-02T00:02:20;10.93;;;6.00;;
20619;SDS011;10469;42.720;23.252;2023-07-02T00:04:47;9.32;;;5.82;;
20619;SDS011;10469;42.720;23.252;2023-07-02T00:07:12;12.23;;;7.50;;
20619;SDS011;10469;42.720;23.252;2023-07-02T00:09:39;10.07;;;6.95;;
20619;SDS011;10469;42.720;23.252;2023-07-02T00:12:05;10.00;;;5.72;;
20619;SDS011;10469;42.720;23.252;2023-07-02T00:14:31;10.13;;;6.15;;
20619;SDS011;10469;42.720;23.252;2023-07-02T00:16:57;10.65;;;6.22;;
20619;SDS011;10469;42.720;23.252;2023-07-02T00:19:23;8.85;;;6.47;;
20619;SDS011;10469;42.720;23.252;2023-07-02T00:21:48;8.52;;;6.20;;
20619;SDS011;10469;42.720;23.252;2023-07-02T00:24:14;8.45;;;6.13;;
20619;SDS011;10469;42.720;23.252;2023-07-02T00:26:41;9.02;;;6.18;;
20619;SDS011;10469;42.720;23.252;2023-07-02T00:29:07;12.80;;;6.47;;
20619;SDS011;10469;42.720;23.252;2023-07-02T00:31:34;10.23;;;6.47;;
20619;SDS011;10469;42.720;23.252;2023-07-02T00:34:00;10.85;;;7.35;;
20619;SDS011;10469;42.720;23.252;2023-07-02T00:36:27;10.25;;;6.75;;
20619;SDS011;10469;42.720;23.252;2023-07-02T00:38:53;8.38;;;5.82;;
20619;SDS011;10469;42.720;23.252;2023-07-02T00:41:19;8.65;;;6.07;;
20619;SDS011;10469;42.720;23.252;2023-07-02T00:43:45;10.48;;;6.68;;
20619;SDS011;10469;42.720;23.252;2023-07-02T00:46:14;8.73;;;5.60;;
20619;SDS011;10469;42.720;23.252;2023-07-02T00:48:47;10.07;;;6.22;;
20619;SDS011;10469;42.720;23.252;2023-07-02T00:51:15;8.85;;;6.28;;
20619;SDS011;10469;42.720;23.252;2023-07-02T00:53:43;9.15;;;6.40;;
20619;SDS011;10469;42.720;23.252;2023-07-02T00:56:09;11.25;;;6.25;;
20619;SDS011;10469;42.720;23.252;2023-07-02T00:58:36;9.70;;;5.90;;
20619;SDS011;10469;42.720;23.252;2023-07-02T01:01:03;10.93;;;6.47;;
20619;SDS011;10469;42.720;23.252;2023-07-02T01:03:29;10.18;;;6.22;;
20619;SDS011;10469;42.720;23.252;2023-07-02T01:05:57;9.13;;;6.30;;
20619;SDS011;10469;42.720;23.252;2023-07-02T01:08:23;10.35;;;6.30;;
20619;SDS011;10469;42.720;23.252;2023-07-02T01:10:49;14.15;;;7.05;;
20619;SDS011;10469;42.720;23.252;2023-07-02T01:13:16;10.23;;;6.30;;
20619;SDS011;10469;42.720;23.252;2023-07-02T01:15:44;8.35;;;6.13;;
20619;SDS011;10469;42.720;23.252;2023-07-02T01:18:10;10.73;;;6.05;;
20619;SDS011;10469;42.720;23.252;2023-07-02T01:20:38;11.73;;;6.35;;
20619;SDS011;10469;42.720;23.252;2023-07-02T01:23:05;10.95;;;6.30;;
20619;SDS011;10469;42.720;23.252;2023-07-02T01:25:30;13.80;;;6.68;;
20619;SDS011;10469;42.720;23.252;2023-07-02T01:27:56;9.40;;;6.28;;
20619;SDS011;10469;42.720;23.252;2023-07-02T01:30:23;10.50;;;6.53;;
20619;SDS011;10469;42.720;23.252;2023-07-02T01:32:51;10.57;;;6.53;;
20619;SDS011;10469;42.720;23.252;2023-07-02T01:35:16;12.35;;;6.18;;
20619;SDS011;10469;42.720;23.252;2023-07-02T01:37:41;13.65;;;6.85;;
20619;SDS011;10469;42.720;23.252;2023-07-02T01:40:07;12.20;;;6.50;;
20619;SDS011;10469;42.720;23.252;2023-07-02T02:02:52;13.20;;;6.75;;
20619;SDS011;10469;42.720;23.252;2023-07-02T02:05:17;13.52;;;6.53;;
20619;SDS011;10469;42.720;23.252;2023-07-02T02:07:43;13.25;;;7.47;;
20619;SDS011;10469;42.720;23.252;2023-07-02T02:10:08;13.40;;;7.07;;
20619;SDS011;10469;42.720;23.252;2023-07-02T02:12:35;12.13;;;6.95;;
20619;SDS011;10469;42.720;23.252;2023-07-02T02:15:00;14.65;;;7.20;;
20619;SDS011;10469;42.720;23.252;2023-07-02T02:17:26;13.13;;;7.03;;
20619;SDS011;10469;42.720;23.252;2023-07-02T02:19:51;16.27;;;7.22;;
20619;SDS011;10469;42.720;23.252;2023-07-02T02:22:17;14.23;;;8.48;;
20619;SDS011;10469;42.720;23.252;2023-07-02T02:24:42;14.13;;;7.88;;
20619;SDS011;10469;42.720;23.252;2023-07-02T02:27:08;13.73;;;7.10;;
20619;SDS011;10469;42.720;23.252;2023-07-02T02:29:34;13.63;;;7.88;;
20619;SDS011;10469;42.720;23.252;2023-07-02T02:31:59;12.98;;;7.55;;
20619;SDS011;10469;42.720;23.252;2023-07-02T02:34:25;16.08;;;8.00;;
20619;SDS011;10469;42.720;23.252;2023-07-02T02:36:50;14.65;;;8.00;;
20619;SDS011;10469;42.720;23.252;2023-07-02T02:39:16;13.85;;;8.07;;
20619;SDS011;10469;42.720;23.252;2023-07-02T02:41:41;17.80;;;7.03;;
20619;SDS011;10469;42.720;23.252;2023-07-02T02:44:07;17.60;;;7.85;;
20619;SDS011;10469;42.720;23.252;2023-07-02T02:46:32;13.68;;;7.03;;
20619;SDS011;10469;42.720;23.252;2023-07-02T02:48:58;13.18;;;8.15;;
20619;SDS011;10469;42.720;23.252;2023-07-02T02:51:23;16.75;;;7.90;;
20619;SDS011;10469;42.720;23.252;2023-07-02T02:53:49;14.65;;;8.07;;
20619;SDS011;10469;42.720;23.252;2023-07-02T02:56:14;19.25;;;8.30;;
20619;SDS011;10469;42.720;23.252;2023-07-02T02:58:40;12.30;;;7.88;;
20619;SDS011;10469;42.720;23.252;2023-07-02T03:01:05;14.68;;;7.30;;
20619;SDS011;10469;42.720;23.252;2023-07-02T03:03:36;19.05;;;7.93;;
20619;SDS011;10469;42.720;23.252;2023-07-02T03:06:04;13.32;;;7.47;;
20619;SDS011;10469;42.720;23.252;2023-07-02T03:08:30;16.67;;;8.70;;
20619;SDS011;10469;42.720;23.252;2023-07-02T03:10:56;13.55;;;7.50;;
20619;SDS011;10469;42.720;23.252;2023-07-02T03:13:21;10.02;;;6.97;;
20619;SDS011;10469;42.720;23.252;2023-07-02T03:15:47;12.90;;;7.25;;
20619;SDS011;10469;42.720;23.252;2023-07-02T03:18:12;18.15;;;8.18;;
20619;SDS011;10469;42.720;23.252;2023-07-02T03:20:38;16.63;;;8.30;;
20619;SDS011;10469;42.720;23.252;2023-07-02T03:23:03;15.98;;;8.45;;
20619;SDS011;10469;42.720;23.252;2023-07-02T03:25:29;12.85;;;8.30;;
20619;SDS011;10469;42.720;23.252;2023-07-02T03:27:54;19.73;;;8.50;;
20619;SDS011;10469;42.720;23.252;2023-07-02T03:30:20;16.52;;;8.27;;
20619;SDS011;10469;42.720;23.252;2023-07-02T03:32:45;17.10;;;8.13;;
20619;SDS011;10469;42.720;23.252;2023-07-02T03:35:10;18.42;;;8.20;;
20619;SDS011;10469;42.720;23.252;2023-07-02T03:37:36;15.45;;;7.82;;
20619;SDS011;10469;42.720;23.252;2023-07-02T03:40:01;15.05;;;7.88;;
20619;SDS011;10469;42.720;23.252;2023-07-02T03:42:27;12.77;;;7.72;;
20619;SDS011;10469;42.720;23.252;2023-07-02T03:44:53;15.65;;;7.82;;
20619;SDS011;10469;42.720;23.252;2023-07-02T03:47:18;18.10;;;7.55;;
20619;SDS011;10469;42.720;23.252;2023-07-02T03:49:44;14.60;;;8.32;;
20619;SDS011;10469;42.720;23.252;2023-07-02T03:52:10;12.77;;;8.38;;
20619;SDS011;10469;42.720;23.252;2023-07-02T03:54:35;13.13;;;7.85;;
20619;SDS011;10469;42.720;23.252;2023-07-02T03:57:01;14.20;;;7.25;;
20619;SDS011;10469;42.720;23.252;2023-07-02T03:59:27;14.43;;;7.25;;
20619;SDS011;10469;42.720;23.252;2023-07-02T04:01:52;12.68;;;7.53;;
20619;SDS011;10469;42.720;23.252;2023-07-02T04:04:18;16.23;;;7.97;;
20619;SDS011;10469;42.720;23.252;2023-07-02T04:06:43;16.20;;;7.40;;
20619;SDS011;10469;42.720;23.252;2023-07-02T04:09:09;12.23;;;7.63;;
20619;SDS011;10469;42.720;23.252;2023-07-02T04:11:34;13.23;;;6.75;;
20619;SDS011;10469;42.720;23.252;2023-07-02T04:14:00;12.95;;;7.80;;
20619;SDS011;10469;42.720;23.252;2023-07-02T04:16:25;14.85;;;7.85;;
20619;SDS011;10469;42.720;23.252;2023-07-02T04:18:50;15.02;;;8.40;;
20619;SDS011;10469;42.720;23.252;2023-07-02T04:21:16;19.00;;;8.25;;
20619;SDS011;10469;42.720;23.252;2023-07-02T04:23:41;13.75;;;8.73;;
20619;SDS011;10469;42.720;23.252;2023-07-02T04:26:07;14.48;;;9.65;;
20619;SDS011;10469;42.720;23.252;2023-07-02T04:28:32;19.50;;;10.10;;
20619;SDS011;10469;42.720;23.252;2023-07-02T04:30:58;18.60;;;9.27;;
20619;SDS011;10469;42.720;23.252;2023-07-02T04:33:23;14.52;;;7.15;;
20619;SDS011;10469;42.720;23.252;2023-07-02T04:35:49;15.32;;;8.75;;
20619;SDS011;10469;42.720;23.252;2023-07-02T04:38:14;13.30;;;8.00;;
20619;SDS011;10469;42.720;23.252;2023-07-02T04:40:41;17.35;;;7.97;;
20619;SDS011;10469;42.720;23.252;2023-07-02T04:43:09;14.75;;;8.15;;
20619;SDS011;10469;42.720;23.252;2023-07-02T04:45:35;16.95;;;7.97;;
20619;SDS011;10469;42.720;23.252;2023-07-02T04:48:01;19.02;;;9.40;;
20619;SDS011;10469;42.720;23.252;2023-07-02T04:50:27;17.30;;;9.07;;
20619;SDS011;10469;42.720;23.252;2023-07-02T04:52:53;15.38;;;8.60;;
20619;SDS011;10469;42.720;23.252;2023-07-02T04:55:18;15.60;;;8.60;;
20619;SDS011;10469;42.720;23.252;2023-07-02T04:57:44;12.85;;;8.18;;
20619;SDS011;10469;42.720;23.252;2023-07-02T05:00:10;27.60;;;8.93;;
20619;SDS011;10469;42.720;23.252;2023-07-02T05:02:36;18.90;;;8.43;;
20619;SDS011;10469;42.720;23.252;2023-07-02T05:05:01;16.17;;;9.40;;
20619;SDS011;10469;42.720;23.252;2023-07-02T05:07:27;16.15;;;8.75;;
20619;SDS011;10469;42.720;23.252;2023-07-02T05:09:52;17.15;;;8.57;;
20619;SDS011;10469;42.720;23.252;2023-07-02T05:12:18;17.05;;;8.77;;
20619;SDS011;10469;42.720;23.252;2023-07-02T05:14:44;14.50;;;8.55;;
20619;SDS011;10469;42.720;23.252;2023-07-02T05:17:10;16.38;;;8.77;;
20619;SDS011;10469;42.720;23.252;2023-07-02T05:19:36;12.18;;;8.15;;
20619;SDS011;10469;42.720;23.252;2023-07-02T05:22:01;15.18;;;7.72;;
20619;SDS011;10469;42.720;23.252;2023-07-02T05:24:27;13.80;;;8.63;;
20619;SDS011;10469;42.720;23.252;2023-07-02T05:26:52;15.55;;;8.65;;
20619;SDS011;10469;42.720;23.252;2023-07-02T05:29:18;17.25;;;8.82;;
20619;SDS011;10469;42.720;23.252;2023-07-02T05:31:44;18.08;;;8.02;;
20619;SDS011;10469;42.720;23.252;2023-07-02T05:34:09;18.45;;;9.10;;
20619;SDS011;10469;42.720;23.252;2023-07-02T05:36:35;19.95;;;8.73;;
20619;SDS011;10469;42.720;23.252;2023-07-02T05:39:00;14.13;;;8.38;;
20619;SDS011;10469;42.720;23.252;2023-07-02T05:41:26;15.18;;;8.55;;
20619;SDS011;10469;42.720;23.252;2023-07-02T05:43:55;14.48;;;8.73;;
20619;SDS011;10469;42.720;23.252;2023-07-02T05:46:24;14.80;;;8.73;;
20619;SDS011;10469;42.720;23.252;2023-07-02T05:48:50;14.73;;;8.60;;
20619;SDS011;10469;42.720;23.252;2023-07-02T05:51:22;18.67;;;8.98;;
20619;SDS011;10469;42.720;23.252;2023-07-02T05:56:14;16.00;;;8.38;;
20619;SDS011;10469;42.720;23.252;2023-07-02T05:58:39;21.52;;;9.60;;
20619;SDS011;10469;42.720;23.252;2023-07-02T06:01:05;13.32;;;8.68;;
20619;SDS011;10469;42.720;23.252;2023-07-02T06:03:31;17.08;;;8.38;;
20619;SDS011;10469;42.720;23.252;2023-07-02T06:05:57;13.55;;;8.38;;
20619;SDS011;10469;42.720;23.252;2023-07-02T06:08:22;18.60;;;11.15;;
20619;SDS011;10469;42.720;23.252;2023-07-02T06:10:48;13.57;;;9.02;;
20619;SDS011;10469;42.720;23.252;2023-07-02T06:13:14;20.08;;;11.30;;
20619;SDS011;10469;42.720;23.252;2023-07-02T06:15:40;18.48;;;10.57;;
20619;SDS011;10469;42.720;23.252;2023-07-02T06:18:05;18.05;;;10.57;;
20619;SDS011;10469;42.720;23.252;2023-07-02T06:20:31;23.08;;;11.18;;
20619;SDS011;10469;42.720;23.252;2023-07-02T06:22:56;15.77;;;9.85;;
20619;SDS011;10469;42.720;23.252;2023-07-02T06:25:22;16.48;;;10.77;;
20619;SDS011;10469;42.720;23.252;2023-07-02T06:27:47;14.48;;;10.10;;
20619;SDS011;10469;42.720;23.252;2023-07-02T06:30:13;15.63;;;10.00;;
20619;SDS011;10469;42.720;23.252;2023-07-02T06:32:39;16.50;;;10.23;;
20619;SDS011;10469;42.720;23.252;2023-07-02T06:35:04;16.13;;;10.10;;
20619;SDS011;10469;42.720;23.252;2023-07-02T06:37:33;20.27;;;11.00;;
20619;SDS011;10469;42.720;23.252;2023-07-02T06:39:59;18.20;;;10.25;;
20619;SDS011;10469;42.720;23.252;2023-07-02T06:42:25;16.08;;;10.30;;
20619;SDS011;10469;42.720;23.252;2023-07-02T06:44:50;18.42;;;9.85;;
20619;SDS011;10469;42.720;23.252;2023-07-02T06:47:16;21.15;;;10.45;;
20619;SDS011;10469;42.720;23.252;2023-07-02T06:49:42;18.80;;;11.50;;
20619;SDS011;10469;42.720;23.252;2023-07-02T06:52:07;19.98;;;10.88;;
20619;SDS011;10469;42.720;23.252;2023-07-02T06:54:33;16.45;;;10.23;;
20619;SDS011;10469;42.720;23.252;2023-07-02T06:56:59;15.57;;;9.90;;
20619;SDS011;10469;42.720;23.252;2023-07-02T06:59:24;16.73;;;10.15;;
20619;SDS011;10469;42.720;23.252;2023-07-02T07:01:50;18.55;;;9.85;;
20619;SDS011;10469;42.720;23.252;2023-07-02T07:04:16;16.88;;;9.82;;
20619;SDS011;10469;42.720;23.252;2023-07-02T07:06:41;19.85;;;10.60;;
20619;SDS011;10469;42.720;23.252;2023-07-02T07:09:07;20.60;;;10.80;;
20619;SDS011;10469;42.720;23.252;2023-07-02T07:11:33;17.70;;;9.88;;
20619;SDS011;10469;42.720;23.252;2023-07-02T07:13:59;16.50;;;9.25;;
20619;SDS011;10469;42.720;23.252;2023-07-02T07:16:24;15.95;;;9.63;;
20619;SDS011;10469;42.720;23.252;2023-07-02T07:18:50;15.98;;;9.77;;
20619;SDS011;10469;42.720;23.252;2023-07-02T07:21:15;22.13;;;9.18;;
20619;SDS011;10469;42.720;23.252;2023-07-02T07:23:41;13.88;;;9.63;;
20619;SDS011;10469;42.720;23.252;2023-07-02T07:26:06;15.63;;;10.15;;
20619;SDS011;10469;42.720;23.252;2023-07-02T07:28:32;16.63;;;9.75;;
20619;SDS011;10469;42.720;23.252;2023-07-02T07:30:57;12.88;;;9.02;;
20619;SDS011;10469;42.720;23.252;2023-07-02T07:33:23;19.00;;;9.70;;
20619;SDS011;10469;42.720;23.252;2023-07-02T07:35:49;21.02;;;9.55;;
20619;SDS011;10469;42.720;23.252;2023-07-02T07:38:14;23.08;;;8.88;;
20619;SDS011;10469;42.720;23.252;2023-07-02T07:40:40;14.48;;;8.63;;
20619;SDS011;10469;42.720;23.252;2023-07-02T07:43:07;14.90;;;7.95;;
20619;SDS011;10469;42.720;23.252;2023-07-02T07:45:32;10.70;;;6.80;;
20619;SDS011;10469;42.720;23.252;2023-07-02T07:47:58;11.55;;;7.53;;
20619;SDS011;10469;42.720;23.252;2023-07-02T07:50:24;15.15;;;7.93;;
20619;SDS011;10469;42.720;23.252;2023-07-02T07:52:49;12.30;;;7.45;;
20619;SDS011;10469;42.720;23.252;2023-07-02T07:55:16;10.95;;;7.25;;
20619;SDS011;10469;42.720;23.252;2023-07-02T07:57:42;14.52;;;7.32;;
20619;SDS011;10469;42.720;23.252;2023-07-02T08:00:08;6.88;;;5.30;;
20619;SDS011;10469;42.720;23.252;2023-07-02T08:02:37;8.60;;;6.10;;
20619;SDS011;10469;42.720;23.252;2023-07-02T08:05:02;6.60;;;5.43;;
20619;SDS011;10469;42.720;23.252;2023-07-02T08:07:29;15.95;;;8.15;;
20619;SDS011;10469;42.720;23.252;2023-07-02T08:09:56;9.50;;;7.47;;
20619;SDS011;10469;42.720;23.252;2023-07-02T08:12:21;14.18;;;7.10;;
20619;SDS011;10469;42.720;23.252;2023-07-02T08:14:47;13.05;;;8.30;;
20619;SDS011;10469;42.720;23.252;2023-07-02T08:17:12;12.30;;;7.97;;
20619;SDS011;10469;42.720;23.252;2023-07-02T08:19:38;13.63;;;8.75;;
20619;SDS011;10469;42.720;23.252;2023-07-02T08:22:03;13.13;;;8.43;;
20619;SDS011;10469;42.720;23.252;2023-07-02T08:24:29;14.23;;;8.32;;
20619;SDS011;10469;42.720;23.252;2023-07-02T08:26:56;14.90;;;7.90;;
20619;SDS011;10469;42.720;23.252;2023-07-02T08:29:21;16.02;;;7.85;;
20619;SDS011;10469;42.720;23.252;2023-07-02T08:31:47;13.32;;;8.23;;
20619;SDS011;10469;42.720;23.252;2023-07-02T08:34:12;13.68;;;8.18;;
20619;SDS011;10469;42.720;23.252;2023-07-02T08:36:38;14.48;;;8.00;;
20619;SDS011;10469;42.720;23.252;2023-07-02T08:39:03;12.52;;;8.30;;
20619;SDS011;10469;42.720;23.252;2023-07-02T08:41:29;10.55;;;7.32;;
20619;SDS011;10469;42.720;23.252;2023-07-02T08:43:56;13.02;;;7.90;;
20619;SDS011;10469;42.720;23.252;2023-07-02T08:46:24;17.08;;;8.13;;
20619;SDS011;10469;42.720;23.252;2023-07-02T08:48:50;11.77;;;7.57;;
20619;SDS011;10469;42.720;23.252;2023-07-02T08:51:15;11.65;;;8.25;;
20619;SDS011;10469;42.720;23.252;2023-07-02T08:53:41;13.20;;;7.93;;
20619;SDS011;10469;42.720;23.252;2023-07-02T08:56:06;16.90;;;8.13;;
20619;SDS011;10469;42.720;23.252;2023-07-02T08:58:32;14.93;;;8.18;;
20619;SDS011;10469;42.720;23.252;2023-07-02T09:01:07;13.27;;;7.80;;
20619;SDS011;10469;42.720;23.252;2023-07-02T09:03:34;24.15;;;8.13;;
20619;SDS011;10469;42.720;23.252;2023-07-02T09:06:02;12.40;;;8.23;;
20619;SDS011;10469;42.720;23.252;2023-07-02T09:08:29;13.05;;;8.18;;
20619;SDS011;10469;42.720;23.252;2023-07-02T09:11:04;12.20;;;7.25;;
20619;SDS011;10469;42.720;23.252;2023-07-02T09:13:48;16.17;;;7.43;;
20619;SDS011;10469;42.720;23.252;2023-07-02T09:16:22;11.43;;;8.05;;
20619;SDS011;10469;42.720;23.252;2023-07-02T09:18:58;16.38;;;7.53;;
20619;SDS011;10469;42.720;23.252;2023-07-02T09:21:44;8.73;;;6.55;;
20619;SDS011;10469;42.720;23.252;2023-07-02T09:24:21;10.63;;;6.65;;
20619;SDS011;10469;42.720;23.252;2023-07-02T09:26:52;11.48;;;7.00;;
20619;SDS011;10469;42.720;23.252;2023-07-02T09:29:21;12.27;;;7.03;;
20619;SDS011;10469;42.720;23.252;2023-07-02T09:31:53;11.40;;;6.93;;
20619;SDS011;10469;42.720;23.252;2023-07-02T09:34:20;13.18;;;7.57;;
20619;SDS011;10469;42.720;23.252;2023-07-02T09:36:51;10.40;;;6.88;;
20619;SDS011;10469;42.720;23.252;2023-07-02T09:39:25;11.65;;;6.57;;
20619;SDS011;10469;42.720;23.252;2023-07-02T09:41:54;9.57;;;6.95;;
20619;SDS011;10469;42.720;23.252;2023-07-02T09:44:20;10.48;;;6.55;;
20619;SDS011;10469;42.720;23.252;2023-07-02T09:46:52;11.85;;;6.65;;
20619;SDS011;10469;42.720;23.252;2023-07-02T09:49:26;10.50;;;6.88;;
20619;SDS011;10469;42.720;23.252;2023-07-02T09:51:52;12.35;;;6.88;;
20619;SDS011;10469;42.720;23.252;2023-07-02T09:54:18;11.48;;;6.75;;
20619;SDS011;10469;42.720;23.252;2023-07-02T09:56:45;10.18;;;7.10;;
20619;SDS011;10469;42.720;23.252;2023-07-02T09:59:13;11.18;;;7.18;;
20619;SDS011;10469;42.720;23.252;2023-07-02T10:01:39;11.88;;;7.25;;
20619;SDS011;10469;42.720;23.252;2023-07-02T10:04:14;12.23;;;6.55;;
20619;SDS011;10469;42.720;23.252;2023-07-02T10:09:34;11.98;;;7.25;;
20619;SDS011;10469;42.720;23.252;2023-07-02T10:12:01;9.65;;;6.32;;
20619;SDS011;10469;42.720;23.252;2023-07-02T10:14:40;10.20;;;6.68;;
20619;SDS011;10469;42.720;23.252;2023-07-02T10:17:09;12.77;;;6.55;;
20619;SDS011;10469;42.720;23.252;2023-07-02T10:19:35;10.98;;;6.10;;
20619;SDS011;10469;42.720;23.252;2023-07-02T10:22:01;9.98;;;6.03;;
20619;SDS011;10469;42.720;23.252;2023-07-02T10:24:27;8.98;;;6.13;;
20619;SDS011;10469;42.720;23.252;2023-07-02T10:29:23;7.03;;;5.60;;
20619;SDS011;10469;42.720;23.252;2023-07-02T10:31:56;7.35;;;4.88;;
20619;SDS011;10469;42.720;23.252;2023-07-02T10:34:29;5.43;;;4.63;;
20619;SDS011;10469;42.720;23.252;2023-07-02T10:36:54;9.73;;;5.55;;
20619;SDS011;10469;42.720;23.252;2023-07-02T10:39:20;8.00;;;5.57;;
20619;SDS011;10469;42.720;23.252;2023-07-02T10:41:46;7.80;;;4.78;;
20619;SDS011;10469;42.720;23.252;2023-07-02T10:44:11;6.10;;;4.55;;
20619;SDS011;10469;42.720;23.252;2023-07-02T10:46:46;6.45;;;4.70;;
20619;SDS011;10469;42.720;23.252;2023-07-02T10:49:13;8.63;;;4.57;;
20619;SDS011;10469;42.720;23.252;2023-07-02T10:51:39;7.45;;;5.13;;
20619;SDS011;10469;42.720;23.252;2023-07-02T10:54:06;6.40;;;4.95;;
20619;SDS011;10469;42.720;23.252;2023-07-02T10:56:32;5.85;;;4.40;;
20619;SDS011;10469;42.720;23.252;2023-07-02T10:58:57;8.80;;;5.03;;
20619;SDS011;10469;42.720;23.252;2023-07-02T11:10:22;7.20;;;5.03;;
20619;SDS011;10469;42.720;23.252;2023-07-02T11:12:48;9.38;;;5.18;;
20619;SDS011;10469;42.720;23.252;2023-07-02T11:15:14;8.82;;;5.30;;
20619;SDS011;10469;42.720;23.252;2023-07-02T11:17:41;11.85;;;5.75;;
20619;SDS011;10469;42.720;23.252;2023-07-02T11:20:10;13.57;;;6.10;;
20619;SDS011;10469;42.720;23.252;2023-07-02T11:22:37;7.53;;;5.38;;
20619;SDS011;10469;42.720;23.252;2023-07-02T11:25:15;9.55;;;5.60;;
20619;SDS011;10469;42.720;23.252;2023-07-02T11:27:42;10.32;;;5.57;;
20619;SDS011;10469;42.720;23.252;2023-07-02T11:30:08;8.32;;;5.53;;
20619;SDS011;10469;42.720;23.252;2023-07-02T11:32:35;9.50;;;5.53;;
20619;SDS011;10469;42.720;23.252;2023-07-02T11:35:13;6.43;;;5.20;;
20619;SDS011;10469;42.720;23.252;2023-07-02T11:37:39;7.47;;;5.53;;
20619;SDS011;10469;42.720;23.252;2023-07-02T11:40:05;13.00;;;5.30;;
20619;SDS011;10469;42.720;23.252;2023-07-02T11:42:30;8.60;;;5.10;;
20619;SDS011;10469;42.720;23.252;2023-07-02T11:44:56;6.78;;;4.40;;
20619;SDS011;10469;42.720;23.252;2023-07-02T11:47:21;5.78;;;4.80;;
20619;SDS011;10469;42.720;23.252;2023-07-02T11:49:50;6.78;;;5.05;;
20619;SDS011;10469;42.720;23.252;2023-07-02T11:52:15;6.90;;;5.13;;
20619;SDS011;10469;42.720;23.252;2023-07-02T11:54:41;7.78;;;5.20;;
20619;SDS011;10469;42.720;23.252;2023-07-02T11:57:09;8.55;;;5.65;;
20619;SDS011;10469;42.720;23.252;2023-07-02T11:59:34;8.65;;;5.20;;
20619;SDS011;10469;42.720;23.252;2023-07-02T12:02:01;9.40;;;5.30;;
20619;SDS011;10469;42.720;23.252;2023-07-02T12:04:27;7.07;;;4.72;;
20619;SDS011;10469;42.720;23.252;2023-07-02T12:06:52;9.50;;;4.68;;
20619;SDS011;10469;42.720;23.252;2023-07-02T12:09:18;5.78;;;4.25;;
20619;SDS011;10469;42.720;23.252;2023-07-02T12:11:43;7.82;;;4.50;;
20619;SDS011;10469;42.720;23.252;2023-07-02T12:14:10;11.00;;;4.95;;
20619;SDS011;10469;42.720;23.252;2023-07-02T12:16:36;12.65;;;4.80;;
20619;SDS011;10469;42.720;23.252;2023-07-02T12:19:01;6.43;;;5.00;;
20619;SDS011;10469;42.720;23.252;2023-07-02T12:21:27;6.85;;;5.15;;
20619;SDS011;10469;42.720;23.252;2023-07-02T12:23:52;9.13;;;5.30;;
20619;SDS011;10469;42.720;23.252;2023-07-02T12:26:18;7.78;;;5.40;;
20619;SDS011;10469;42.720;23.252;2023-07-02T12:28:43;7.07;;;5.07;;
20619;SDS011;10469;42.720;23.252;2023-07-02T12:31:09;7.65;;;5.40;;
20619;SDS011;10469;42.720;23.252;2023-07-02T12:33:35;9.32;;;6.13;;
20619;SDS011;10469;42.720;23.252;2023-07-02T12:36:01;9.93;;;6.28;;
20619;SDS011;10469;42.720;23.252;2023-07-02T12:38:28;8.05;;;5.80;;
20619;SDS011;10469;42.720;23.252;2023-07-02T12:40:53;8.65;;;5.82;;
20619;SDS011;10469;42.720;23.252;2023-07-02T12:43:19;10.18;;;6.35;;
20619;SDS011;10469;42.720;23.252;2023-07-02T12:45:45;9.00;;;6.20;;
20619;SDS011;10469;42.720;23.252;2023-07-02T12:48:10;10.23;;;6.15;;
20619;SDS011;10469;42.720;23.252;2023-07-02T12:50:37;8.85;;;5.63;;
20619;SDS011;10469;42.720;23.252;2023-07-02T12:53:07;7.53;;;5.72;;
20619;SDS011;10469;42.720;23.252;2023-07-02T12:55:32;10.20;;;5.90;;
20619;SDS011;10469;42.720;23.252;2023-07-02T12:57:58;7.18;;;5.32;;
20619;SDS011;10469;42.720;23.252;2023-07-02T13:00:23;11.05;;;6.45;;
20619;SDS011;10469;42.720;23.252;2023-07-02T13:02:49;8.65;;;5.72;;
20619;SDS011;10469;42.720;23.252;2023-07-02T13:05:14;11.23;;;6.35;;
20619;SDS011;10469;42.720;23.252;2023-07-02T13:07:40;9.13;;;5.95;;
20619;SDS011;10469;42.720;23.252;2023-07-02T13:10:06;7.78;;;5.88;;
20619;SDS011;10469;42.720;23.252;2023-07-02T13:12:31;13.43;;;6.40;;
20619;SDS011;10469;42.720;23.252;2023-07-02T13:14:57;11.73;;;6.47;;
20619;SDS011;10469;42.720;23.252;2023-07-02T13:17:23;6.55;;;5.63;;
20619;SDS011;10469;42.720;23.252;2023-07-02T13:19:49;8.63;;;6.03;;
20619;SDS011;10469;42.720;23.252;2023-07-02T13:22:14;10.52;;;5.72;;
20619;SDS011;10469;42.720;23.252;2023-07-02T13:24:40;8.57;;;5.82;;
20619;SDS011;10469;42.720;23.252;2023-07-02T13:27:07;8.15;;;6.07;;
20619;SDS011;10469;42.720;23.252;2023-07-02T13:29:37;10.57;;;6.50;;
20619;SDS011;10469;42.720;23.252;2023-07-02T13:32:03;16.45;;;7.47;;
20619;SDS011;10469;42.720;23.252;2023-07-02T13:34:29;11.02;;;6.45;;
20619;SDS011;10469;42.720;23.252;2023-07-02T13:36:54;8.48;;;5.55;;
20619;SDS011;10469;42.720;23.252;2023-07-02T13:39:20;8.60;;;5.75;;
20619;SDS011;10469;42.720;23.252;2023-07-02T13:41:46;7.82;;;5.70;;
20619;SDS011;10469;42.720;23.252;2023-07-02T13:44:11;18.88;;;6.55;;
20619;SDS011;10469;42.720;23.252;2023-07-02T13:46:37;9.02;;;5.68;;
20619;SDS011;10469;42.720;23.252;2023-07-02T13:49:02;9.90;;;6.15;;
20619;SDS011;10469;42.720;23.252;2023-07-02T13:51:28;10.07;;;6.15;;
20619;SDS011;10469;42.720;23.252;2023-07-02T13:53:53;13.35;;;6.63;;
20619;SDS011;10469;42.720;23.252;2023-07-02T13:56:19;10.48;;;6.32;;
20619;SDS011;10469;42.720;23.252;2023-07-02T14:01:22;16.85;;;7.88;;
20619;SDS011;10469;42.720;23.252;2023-07-02T14:03:49;11.98;;;7.25;;
20619;SDS011;10469;42.720;23.252;2023-07-02T14:06:14;15.25;;;9.30;;
20619;SDS011;10469;42.720;23.252;2023-07-02T14:08:40;14.48;;;8.70;;
20619;SDS011;10469;42.720;23.252;2023-07-02T14:11:06;14.95;;;8.10;;
20619;SDS011;10469;42.720;23.252;2023-07-02T14:13:32;17.25;;;8.05;;
20619;SDS011;10469;42.720;23.252;2023-07-02T14:15:58;12.05;;;7.25;;
20619;SDS011;10469;42.720;23.252;2023-07-02T14:18:24;12.30;;;7.28;;
20619;SDS011;10469;42.720;23.252;2023-07-02T14:20:49;11.73;;;7.32;;
20619;SDS011;10469;42.720;23.252;2023-07-02T14:23:15;15.30;;;7.32;;
20619;SDS011;10469;42.720;23.252;2023-07-02T14:25:40;16.80;;;8.30;;
20619;SDS011;10469;42.720;23.252;2023-07-02T14:28:06;10.15;;;7.10;;
20619;SDS011;10469;42.720;23.252;2023-07-02T14:30:32;9.50;;;7.18;;
20619;SDS011;10469;42.720;23.252;2023-07-02T14:32:58;11.00;;;7.78;;
20619;SDS011;10469;42.720;23.252;2023-07-02T14:35:23;11.18;;;6.88;;
20619;SDS011;10469;42.720;23.252;2023-07-02T14:37:52;13.75;;;7.53;;
20619;SDS011;10469;42.720;23.252;2023-07-02T14:40:18;11.38;;;7.20;;
20619;SDS011;10469;42.720;23.252;2023-07-02T14:42:44;10.95;;;7.30;;
20619;SDS011;10469;42.720;23.252;2023-07-02T14:45:09;11.13;;;8.15;;
20619;SDS011;10469;42.720;23.252;2023-07-02T14:47:35;13.00;;;7.93;;
20619;SDS011;10469;42.720;23.252;2023-07-02T14:50:01;11.13;;;7.78;;
20619;SDS011;10469;42.720;23.252;2023-07-02T14:52:26;12.60;;;8.70;;
20619;SDS011;10469;42.720;23.252;2023-07-02T14:54:52;11.18;;;7.65;;
20619;SDS011;10469;42.720;23.252;2023-07-02T14:57:18;12.60;;;7.20;;
20619;SDS011;10469;42.720;23.252;2023-07-02T14:59:44;10.02;;;7.32;;